Flight Track Log - Related Links

Times and Time Zones

All times are in EDT time to prevent confusion due to time zone crossing. See the EGF4603 flight status page for this flight to view local times or setup timezone preferences in your user account.

Time Position Orientation Groundspeed Altitude Reporting Facility
EDT Latitude Longitude Course Direction KTS MPH feet Rate Location/Type
Mon 04:51:23 PM 35.2011 -80.9353 72° East 151 174 1,500  Level Atlanta Center
Mon 04:51:56 PM 35.1781 -80.9325 174° South 154 177 3,200 2,778 Climbing FAA TRACON SMA TRACON (SMA)
Mon 04:52:17 PM 35.1606 -80.9297 173° South 207 238 4,000 2,488 Climbing FAA TRACON SMA TRACON (SMA)
Mon 04:52:37 PM 35.1394 -80.9147 150° Southeast 245 282 4,900 2,800 Climbing FAA TRACON SMA TRACON (SMA)
Mon 04:53:00 PM 35.1282 -80.6145 29° Northeast  Level FlightAware Approximate
Mon 04:53:17 PM 35.1025 -80.8719 137° Southeast 282 325 6,800  Level FAA TRACON SMA TRACON (SMA)
Mon 04:53:37 PM 35.0936 -80.8456 112° Southeast 278 320 7,700 1,650 Climbing FAA TRACON SMA TRACON (SMA)
Mon 04:53:57 PM 35.0947 -80.8164 87° East 278 320 7,900 300 Climbing FAA TRACON SMA TRACON (SMA)
Mon 04:54:00 PM 35.2298 -80.5454 30° Northeast  Level FlightAware Approximate
Mon 04:54:17 PM 35.0978 -80.7789 84° East 280 322 7,900  Level FAA TRACON SMA TRACON (SMA)
Mon 04:54:37 PM 35.1014 -80.7481 82° East 296 341 8,000 150 Climbing FAA TRACON SMA TRACON (SMA)
Mon 04:54:57 PM 35.1047 -80.7169 83° East 299 344 8,000  Level FAA TRACON SMA TRACON (SMA)
Mon 04:55:00 PM 35.3188 -80.4667 North  Level FlightAware Approximate
Mon 04:55:17 PM 35.1089 -80.6786 82° East 298 343 8,000  Level FAA TRACON SMA TRACON (SMA)
Mon 04:55:37 PM 35.1200 -80.6536 61° Northeast 289 333 8,400 1,950 Climbing FAA TRACON SMA TRACON (SMA)
Mon 04:55:57 PM 35.1375 -80.6261 52° Northeast 324 373 9,300 2,769 Climbing FAA TRACON SMA TRACON (SMA)
Mon 04:56:00 PM 35.3647 -80.3481 72° East  Level FlightAware Approximate
Mon 04:56:16 PM 35.1533 -80.6000 53° Northeast 312 359 10,200  Level FAA TRACON SMA TRACON (SMA)
Mon 04:56:36 PM 35.1744 -80.5669 52° Northeast 318 366 11,100 2,100 Climbing FAA TRACON SMA TRACON (SMA)
Mon 04:56:56 PM 35.1919 -80.5394 52° Northeast 326 375 11,600 1,902 Climbing FAA TRACON SMA TRACON (SMA)
Mon 04:57:17 PM 35.2147 -80.5033 52° Northeast 346 398 12,400 1,950 Climbing FAA TRACON SMA TRACON (SMA)
Mon 04:57:36 PM 35.2336 -80.4725 53° Northeast 362 417 12,900 1,385 Climbing FAA TRACON SMA TRACON (SMA)
Mon 04:57:56 PM 35.2533 -80.4411 52° Northeast 380 437 13,300 1,317 Climbing FAA TRACON SMA TRACON (SMA)
Mon 04:58:17 PM 35.2775 -80.4036 52° Northeast 394 453 13,800 1,463 Climbing FAA TRACON SMA TRACON (SMA)
Mon 04:58:37 PM 35.3000 -80.3664 53° Northeast 407 468 14,300 1,350 Climbing FAA TRACON SMA TRACON (SMA)
Mon 04:58:57 PM 35.3211 -80.3317 53° Northeast 412 474 14,700 1,650 Climbing FAA TRACON SMA TRACON (SMA)
Mon 04:59:17 PM 35.3492 -80.2906 50° Northeast 423 487 15,400 2,100 Climbing FAA TRACON SMA TRACON (SMA)
Mon 04:59:37 PM 35.3708 -80.2528 55° Northeast 422 486 16,100 1,950 Climbing FAA TRACON SMA TRACON (SMA)
Mon 04:59:57 PM 35.3922 -80.2172 54° Northeast 422 486 16,700 2,100 Climbing FAA TRACON SMA TRACON (SMA)
Mon 05:00:17 PM 35.4203 -80.1728 52° Northeast 425 489 17,500 1,950 Climbing FAA TRACON SMA TRACON (SMA)
Mon 05:00:37 PM 35.4347 -80.1311 67° East 427 491 18,000 1,650 Climbing FAA TRACON SMA TRACON (SMA)
Mon 05:00:57 PM 35.4472 -80.0881 70° East 439 505 18,600 1,950 Climbing FAA TRACON SMA TRACON (SMA)
Mon 05:01:17 PM 35.4614 -80.0333 72° East 439 505 19,300 1,950 Climbing FAA TRACON SMA TRACON (SMA)
Mon 05:01:37 PM 35.4722 -79.9892 73° East 441 507 19,900 1,650 Climbing FAA TRACON SMA TRACON (SMA)
Mon 05:01:57 PM 35.4839 -79.9447 72° East 442 509 20,400 1,500 Climbing FAA TRACON SMA TRACON (SMA)
Mon 05:02:17 PM 35.4969 -79.9008 70° East 445 512 20,900 1,692 Climbing FAA TRACON SMA TRACON (SMA)
Mon 05:02:36 PM 35.5067 -79.8550 75° East 449 517 21,500 923 Climbing FAA TRACON SMA TRACON (SMA)
Mon 05:02:56 PM 35.5067 -79.8550 180° South 449 517 21,500 1,742 Level FAA TRACON SMA TRACON (SMA)
Mon 05:03:38 PM 35.5472 -79.6994 72° East 438 504 23,300 2,118 Climbing Washington Center
Mon 05:04:38 PM 35.5858 -79.5458 73° East 453 521 25,100 1,700 Climbing Washington Center
Mon 05:05:38 PM 35.6281 -79.4047 70° East 455 524 26,700 1,600 Climbing Washington Center
Mon 05:06:38 PM 35.6925 -79.2747 59° Northeast 428 493 28,300 1,300 Climbing Washington Center
Mon 05:07:38 PM 35.7853 -79.1717 42° Northeast 433 498 29,300 1,000 Climbing Washington Center
Mon 05:08:38 PM 35.8761 -79.0656 43° Northeast 438 504 30,300 1,050 Climbing Washington Center
Mon 05:09:38 PM 35.9711 -78.9542 43° Northeast 450 518 31,400 900 Climbing Washington Center
Mon 05:10:38 PM 36.0553 -78.8575 43° Northeast 455 524 32,100 600 Climbing Washington Center
Mon 05:11:38 PM 36.1522 -78.7458 43° Northeast 460 529 32,600 450 Climbing Washington Center
Mon 05:12:38 PM 36.2531 -78.6289 43° Northeast 470 541 33,000 200 Climbing Washington Center
Mon 05:13:38 PM 36.3500 -78.5139 44° Northeast 475 547 33,000  Level Washington Center
Mon 05:14:38 PM 36.4506 -78.4014 42° Northeast 481 554 33,000  Level Washington Center
Mon 05:15:38 PM 36.5553 -78.2939 39° Northeast 481 554 33,000  Level Washington Center
Mon 05:16:38 PM 36.6558 -78.1861 41° Northeast 475 547 33,000  Level Washington Center
Mon 05:17:38 PM 36.7561 -78.0781 41° Northeast 475 547 33,000  Level Washington Center
Mon 05:18:38 PM 36.8564 -77.9697 41° Northeast 475 547 33,000  Level Washington Center
Mon 05:19:38 PM 36.9586 -77.8636 40° Northeast 475 547 33,000  Level Washington Center
Mon 05:20:38 PM 37.0586 -77.7547 41° Northeast 475 547 33,000  Level Washington Center
Mon 05:21:38 PM 37.1586 -77.6456 41° Northeast 475 547 33,000  Level Washington Center
Mon 05:22:38 PM 37.2628 -77.5333 41° Northeast 475 547 33,000  Level Washington Center
Mon 05:23:38 PM 37.3647 -77.4236 41° Northeast 470 541 33,000  Level Washington Center
Mon 05:24:38 PM 37.4642 -77.3136 41° Northeast 470 541 33,000  Level Washington Center
Mon 05:25:38 PM 37.5658 -77.2058 40° Northeast 475 547 33,000  Level Washington Center
Mon 05:26:38 PM 37.6653 -77.0925 42° Northeast 475 547 33,000 -500 Level Washington Center
Mon 05:27:38 PM 37.7669 -76.9842 40° Northeast 475 547 32,000 -1,000 Descending Washington Center
Mon 05:28:38 PM 37.8597 -76.8781 42° Northeast 464 534 31,000 -500 Descending Washington Center
Mon 05:29:38 PM 37.9589 -76.7692 41° Northeast 464 534 31,000  Level Washington Center
Mon 05:30:38 PM 38.0581 -76.6572 42° Northeast 464 534 31,000  Level Washington Center
Mon 05:31:38 PM 38.1589 -76.5450 41° Northeast 464 534 31,000  Level Washington Center
Mon 05:32:38 PM 38.2600 -76.4300 42° Northeast 464 534 31,000  Level Washington Center
Mon 05:33:38 PM 38.3689 -76.3278 36° Northeast 471 542 31,000  Level Washington Center
Mon 05:34:38 PM 38.4758 -76.2281 36° Northeast 476 548 31,000 -450 Level Washington Center
Mon 05:35:38 PM 38.5806 -76.1281 37° Northeast 476 548 30,100 -1,100 Descending Washington Center
Mon 05:36:38 PM 38.6917 -76.0306 34° Northeast 476 548 28,800 -1,150 Descending Washington Center
Mon 05:37:38 PM 38.7961 -75.9300 37° Northeast 476 548 27,800 -900 Descending Washington Center
Mon 05:38:38 PM 38.9047 -75.8317 35° Northeast 476 548 27,000 -400 Descending Washington Center
Mon 05:39:38 PM 39.0092 -75.7306 37° Northeast 471 542 27,000 -750 Level Washington Center
Mon 05:40:38 PM 39.1156 -75.6317 36° Northeast 471 542 25,500 -1,500 Descending Washington Center
Mon 05:41:38 PM 39.2197 -75.5300 37° Northeast 471 542 24,000 -1,250 Descending Washington Center
Mon 05:42:38 PM 39.3217 -75.4386 35° Northeast 464 534 23,000 -1,500 Descending Washington Center
Mon 05:43:38 PM 39.4236 -75.3472 35° Northeast 459 528 21,000 -1,500 Descending Washington Center
Mon 05:44:38 PM 39.5275 -75.2553 34° Northeast 446 513 20,000 -500 Descending Washington Center
Mon 05:45:38 PM 39.6231 -75.1631 37° Northeast 441 507 20,000 -650 Level Washington Center
Mon 05:46:38 PM 39.7250 -75.0736 34° Northeast 446 513 18,700 -1,600 Descending Washington Center
Mon 05:47:38 PM 39.8328 -74.9808 33° Northeast 430 495 16,800 -2,138 Descending Washington Center
Mon 05:49:18 PM 39.9833 -74.8167 40° Northeast 416 479 13,000 -2,221 Descending New York TRACON
Mon 05:50:12 PM 40.0500 -74.7167 49° Northeast 406 467 11,100 -1,500 Descending New York TRACON
Mon 05:51:18 PM 40.1333 -74.6000 47° Northeast 392 451 10,000 -550 Descending New York TRACON
Mon 05:52:12 PM 40.2000 -74.5167 44° Northeast 398 458 10,000  Level New York TRACON
Mon 05:53:12 PM 40.2667 -74.4167 49° Northeast 388 447 10,000  Level New York TRACON
Mon 05:54:12 PM 40.3500 -74.3167 42° Northeast 380 437 10,000 -450 Level New York TRACON
Mon 05:55:12 PM 40.4167 -74.2333 44° Northeast 314 361 9,100 -1,400 Descending New York TRACON
Mon 05:56:12 PM 40.4667 -74.1500 52° Northeast 303 349 7,200 -1,900 Descending New York TRACON
Mon 05:57:12 PM 40.5333 -74.0833 37° Northeast 297 342 5,300 -1,524 Descending New York TRACON
Mon 05:58:18 PM 40.6167 -74.0500 17° North 276 318 4,000 -619 Descending New York TRACON
Mon 05:59:18 PM 40.7000 -74.0333 North 277 319 4,000 -250 Level New York TRACON
Mon 06:00:18 PM 40.7667 -74.0000 21° North 269 310 3,500 -684 Descending New York TRACON
Mon 06:01:12 PM 40.8333 -73.9500 30° Northeast 258 297 2,700 -500 Descending New York TRACON
Mon 06:02:18 PM 40.8833 -73.9167 27° Northeast 211 243 2,500 -333 Descending New York TRACON
Mon 06:03:18 PM 40.8833 -73.8500 90° East 177 204 2,000 -500 Descending New York TRACON

Login

Don't have an account? Register now (free) for customized features, flight alerts, and more!